Time;durP1;ratioP1;P1;durP2;ratioP2;P2;SDS_P1;SDS_P2;PMS_P1;PMS_P2;Temp;Humidity;BMP_temperature;BMP_pressure;BME280_temperature;BME280_humidity;BME280_pressure;Samples;Min_cycle;Max_cycle;Signal;HPM_P1;HPM_P2
2022/04/26 03:37:05;;;;;;;7.75;3.85;;;6.50;99.90;;;;;;5075139;28;20500;-85
2022/04/26 03:39:34;;;;;;;16.95;4.10;;;6.50;99.90;;;;;;5075075;28;20437;-85
2022/04/26 03:42:02;;;;;;;9.20;2.83;;;7.20;99.90;;;;;;5073546;28;20044;-85
2022/04/26 03:44:28;;;;;;;9.02;3.03;;;6.80;99.90;;;;;;5074139;28;20246;-84
2022/04/26 03:46:54;;;;;;;4.70;1.90;;;7.20;99.90;;;;;;5058577;28;20040;-85
2022/04/26 03:49:21;;;;;;;7.38;2.72;;;6.10;99.90;;;;;;5077913;28;20127;-85
2022/04/26 03:51:47;;;;;;;4.88;2.05;;;7.20;99.90;;;;;;5075242;28;20761;-85
2022/04/26 03:54:12;;;;;;;6.95;2.38;;;7.20;99.90;;;;;;5074961;28;20064;-84
2022/04/26 03:56:38;;;;;;;5.63;2.85;;;6.20;99.90;;;;;;5074523;28;20102;-84
2022/04/26 03:59:04;;;;;;;5.85;2.63;;;6.30;99.90;;;;;;5074696;28;20062;-84
2022/04/26 04:01:29;;;;;;;7.85;2.65;;;7.00;99.90;;;;;;5074633;28;20045;-85
2022/04/26 04:03:55;;;;;;;5.72;2.22;;;7.20;99.90;;;;;;5075052;28;20101;-84
2022/04/26 04:06:21;;;;;;;8.15;2.58;;;7.00;99.90;;;;;;5074398;28;20195;-85
2022/04/26 04:08:46;;;;;;;5.80;1.83;;;7.00;99.90;;;;;;5074208;28;20025;-84
2022/04/26 04:11:12;;;;;;;5.07;2.15;;;7.00;99.90;;;;;;5074374;28;20040;-85
2022/04/26 04:13:38;;;;;;;6.55;2.45;;;7.10;99.90;;;;;;5074064;28;20041;-85
2022/04/26 04:16:04;;;;;;;6.35;2.38;;;7.30;99.90;;;;;;5073259;28;20045;-85
2022/04/26 04:21:14;;;;;;;4.78;1.60;;;7.00;99.90;;;;;;5074307;28;20131;-85
2022/04/26 04:23:40;;;;;;;10.48;2.80;;;6.30;99.90;;;;;;5073715;28;20075;-84
2022/04/26 04:26:07;;;;;;;5.10;2.42;;;6.90;99.90;;;;;;5073226;28;20036;-85
2022/04/26 04:28:34;;;;;;;10.02;2.65;;;6.30;99.90;;;;;;5074043;28;20490;-85
2022/04/26 04:31:00;;;;;;;5.70;2.20;;;6.80;99.90;;;;;;5074118;28;20059;-84
2022/04/26 04:33:27;;;;;;;6.60;2.28;;;7.00;99.90;;;;;;5073135;28;20489;-84
2022/04/26 04:35:53;;;;;;;8.90;2.30;;;6.90;99.90;;;;;;5072810;28;20044;-85
2022/04/26 04:38:19;;;;;;;5.57;2.05;;;6.90;99.90;;;;;;5073547;28;20453;-84
2022/04/26 04:40:45;;;;;;;7.18;2.53;;;6.70;99.90;;;;;;5073775;28;20102;-84
2022/04/26 04:43:11;;;;;;;11.38;2.45;;;6.70;99.90;;;;;;5072784;28;20417;-84
2022/04/26 04:45:38;;;;;;;7.65;2.40;;;6.10;99.90;;;;;;5073655;28;20033;-84
2022/04/26 04:48:05;;;;;;;6.55;1.92;;;6.30;99.90;;;;;;5072692;28;20052;-84
2022/04/26 04:50:34;;;;;;;6.43;2.50;;;6.30;99.90;;;;;;5071853;28;20052;-84
2022/04/26 04:53:00;;;;;;;3.65;1.80;;;6.30;99.90;;;;;;5064683;28;20503;-84
2022/04/26 04:55:26;;;;;;;4.03;1.80;;;7.20;99.90;;;;;;5073700;28;20075;-84
2022/04/26 04:57:52;;;;;;;9.05;2.25;;;6.60;99.90;;;;;;5073402;28;20076;-84
2022/04/26 05:00:18;;;;;;;8.00;2.55;;;6.90;99.90;;;;;;5072284;28;20123;-84
2022/04/26 05:02:44;;;;;;;4.88;1.80;;;6.40;99.90;;;;;;5073686;28;20044;-84
2022/04/26 05:05:09;;;;;;;4.50;1.55;;;6.50;99.90;;;;;;5073244;28;20481;-84
2022/04/26 05:07:36;;;;;;;5.32;2.00;;;7.30;99.90;;;;;;5072156;28;20507;-84
2022/04/26 05:10:06;;;;;;;12.63;3.10;;;6.50;99.90;;;;;;5073501;28;20086;-84
2022/04/26 05:12:32;;;;;;;6.20;2.50;;;6.50;99.90;;;;;;5105411;28;20055;-82
2022/04/26 05:14:59;;;;;;;5.45;2.25;;;6.90;99.90;;;;;;5073048;28;20115;-84
2022/04/26 05:17:27;;;;;;;10.75;2.08;;;7.00;99.90;;;;;;5071961;28;20048;-84
2022/04/26 05:19:53;;;;;;;5.85;2.45;;;6.70;99.90;;;;;;5072997;28;20056;-84
2022/04/26 05:22:18;;;;;;;4.78;1.92;;;7.10;99.90;;;;;;5073395;28;20037;-84
2022/04/26 05:24:53;;;;;;;5.43;2.13;;;7.40;99.90;;;;;;5071563;28;20051;-84
2022/04/26 05:27:23;;;;;;;7.38;2.10;;;7.30;99.90;;;;;;5066184;28;20036;-84
2022/04/26 05:29:50;;;;;;;7.28;2.60;;;6.80;99.90;;;;;;5072627;28;20051;-84
2022/04/26 05:32:28;;;;;;;9.90;3.70;;;6.80;99.90;;;;;;5073345;28;20032;-85
2022/04/26 05:35:04;;;;;;;11.90;3.50;;;7.90;99.90;;;;;;5072317;28;20089;-85
2022/04/26 05:37:32;;;;;;;6.35;2.30;;;7.00;99.90;;;;;;5072662;28;20044;-85
2022/04/26 05:40:02;;;;;;;5.97;2.28;;;7.30;99.90;;;;;;5071868;28;20512;-85
2022/04/26 05:42:40;;;;;;;9.30;3.17;;;7.80;99.90;;;;;;5073327;28;20389;-84
2022/04/26 05:45:07;;;;;;;9.63;3.08;;;7.40;99.90;;;;;;5071677;28;20044;-84
2022/04/26 05:47:44;;;;;;;6.32;2.58;;;7.30;99.90;;;;;;5071446;28;20051;-87
2022/04/26 05:50:10;;;;;;;4.35;2.58;;;7.40;99.90;;;;;;5067831;28;20072;-84
2022/04/26 05:52:36;;;;;;;9.23;3.20;;;8.50;99.90;;;;;;5071250;28;20043;-83
2022/04/26 05:55:09;;;;;;;8.77;2.85;;;7.70;99.90;;;;;;5072285;28;20084;-85
2022/04/26 05:57:39;;;;;;;7.35;2.80;;;7.70;99.90;;;;;;5072634;28;20401;-82
2022/04/26 06:00:10;;;;;;;4.40;2.00;;;7.90;99.90;;;;;;5072637;28;20173;-83
2022/04/26 06:02:35;;;;;;;5.82;1.92;;;8.00;99.90;;;;;;5072373;28;20488;-85
2022/04/26 06:05:02;;;;;;;6.00;1.58;;;8.10;99.90;;;;;;5071754;28;20045;-85
2022/04/26 06:07:27;;;;;;;6.85;1.67;;;8.10;99.90;;;;;;5072395;28;20125;-84
2022/04/26 06:09:54;;;;;;;9.55;3.00;;;8.10;99.90;;;;;;5072577;28;20028;-84
2022/04/26 06:12:25;;;;;;;6.22;2.25;;;8.80;99.90;;;;;;5073711;28;20044;-84
2022/04/26 06:14:50;;;;;;;7.95;1.92;;;8.20;99.90;;;;;;5103199;28;20048;-84
2022/04/26 06:17:16;;;;;;;4.18;1.67;;;7.10;99.90;;;;;;5072021;28;20048;-84
2022/04/26 06:19:42;;;;;;;3.50;1.70;;;9.10;99.90;;;;;;5072377;28;20040;-84
2022/04/26 06:22:07;;;;;;;8.48;2.20;;;8.30;99.90;;;;;;5064023;28;20059;-84
2022/04/26 06:24:33;;;;;;;5.78;1.45;;;8.30;99.90;;;;;;5072692;28;20039;-84
2022/04/26 06:26:59;;;;;;;7.20;1.70;;;8.40;99.90;;;;;;5053089;28;20577;-84
2022/04/26 06:29:24;;;;;;;2.03;1.15;;;8.50;99.90;;;;;;5089899;28;20404;-84
2022/04/26 06:31:50;;;;;;;5.43;1.50;;;9.30;99.90;;;;;;5070940;28;20123;-86
2022/04/26 06:34:17;;;;;;;2.80;1.40;;;9.50;99.90;;;;;;5072204;28;20120;-85
2022/04/26 06:36:42;;;;;;;4.47;1.25;;;8.80;99.90;;;;;;5071126;28;20116;-84
2022/04/26 06:39:08;;;;;;;3.70;1.40;;;8.80;99.90;;;;;;5070277;28;20373;-84
2022/04/26 06:41:34;;;;;;;9.85;1.65;;;9.20;99.90;;;;;;5072704;28;20037;-85
2022/04/26 06:43:59;;;;;;;4.65;1.30;;;8.80;99.90;;;;;;5071664;28;20040;-85
2022/04/26 06:46:25;;;;;;;3.80;1.50;;;8.90;99.90;;;;;;5072117;28;20480;-85
2022/04/26 06:48:52;;;;;;;5.28;1.30;;;9.20;99.90;;;;;;5072008;28;20043;-85
2022/04/26 06:51:17;;;;;;;7.38;1.40;;;9.70;99.90;;;;;;5070278;28;20045;-86
2022/04/26 06:53:45;;;;;;;7.50;1.77;;;9.60;99.90;;;;;;5070594;28;20048;-87
2022/04/26 06:56:11;;;;;;;3.83;1.42;;;9.50;99.90;;;;;;5070636;28;20476;-84
2022/04/26 06:58:37;;;;;;;5.72;1.40;;;9.00;99.90;;;;;;5072519;28;20037;-85
2022/04/26 07:01:03;;;;;;;6.95;1.75;;;9.00;99.90;;;;;;5076260;28;20051;-85
2022/04/26 07:03:28;;;;;;;3.95;1.20;;;9.00;99.90;;;;;;5077097;28;20120;-84
2022/04/26 07:05:54;;;;;;;6.20;1.40;;;8.90;99.90;;;;;;5076386;28;20056;-86
2022/04/26 07:08:20;;;;;;;7.85;1.40;;;9.10;99.90;;;;;;5075514;28;20448;-85
2022/04/26 07:10:46;;;;;;;7.78;2.13;;;9.90;99.90;;;;;;5075466;28;20047;-85
2022/04/26 07:13:15;;;;;;;5.35;1.70;;;9.30;99.90;;;;;;5076834;28;20050;-84
2022/04/26 07:15:41;;;;;;;7.45;2.13;;;9.60;99.90;;;;;;5075813;28;20036;-85
2022/04/26 07:18:06;;;;;;;4.78;1.70;;;10.10;99.90;;;;;;5076683;28;20523;-85
2022/04/26 07:20:32;;;;;;;5.70;1.73;;;10.00;99.90;;;;;;5077282;28;20041;-85
2022/04/26 07:22:58;;;;;;;3.70;1.48;;;9.50;99.90;;;;;;5076963;28;20048;-84
2022/04/26 07:25:24;;;;;;;5.38;1.77;;;9.60;99.90;;;;;;5076987;28;20477;-85
2022/04/26 07:27:50;;;;;;;7.30;2.03;;;9.80;99.90;;;;;;5076923;28;20044;-85
2022/04/26 07:30:18;;;;;;;5.00;1.60;;;10.10;99.90;;;;;;5075582;28;20128;-84
2022/04/26 07:35:28;;;;;;;5.00;1.50;;;9.90;99.90;;;;;;5076421;28;20113;-85
2022/04/26 07:38:03;;;;;;;3.33;1.13;;;9.80;99.90;;;;;;5076321;28;20061;-85
2022/04/26 07:40:29;;;;;;;6.72;1.83;;;10.20;99.90;;;;;;5076598;28;20048;-85
2022/04/26 07:42:55;;;;;;;4.18;1.90;;;10.40;99.90;;;;;;5076369;28;20059;-85
2022/04/26 07:45:20;;;;;;;4.93;1.67;;;10.50;99.90;;;;;;5074592;28;20055;-85
2022/04/26 07:47:46;;;;;;;2.35;1.45;;;10.70;99.90;;;;;;5076114;28;20044;-85
2022/04/26 07:50:12;;;;;;;4.72;1.20;;;10.70;99.90;;;;;;5074654;28;20405;-85
2022/04/26 07:52:38;;;;;;;3.25;1.55;;;10.80;99.90;;;;;;5074665;28;20040;-85
2022/04/26 07:55:04;;;;;;;3.28;1.33;;;10.70;99.90;;;;;;5076046;28;20064;-85
2022/04/26 07:57:30;;;;;;;3.17;1.63;;;10.60;99.90;;;;;;5075765;28;20131;-84
2022/04/26 07:59:56;;;;;;;4.88;1.40;;;10.50;99.90;;;;;;5076140;28;20132;-85
2022/04/26 08:02:22;;;;;;;2.35;1.45;;;11.00;99.90;;;;;;5075775;28;20496;-85
2022/04/26 08:04:48;;;;;;;2.63;1.15;;;10.30;99.90;;;;;;5074388;28;20053;-84
2022/04/26 08:07:14;;;;;;;7.00;1.17;;;10.60;99.90;;;;;;5074164;28;20057;-83
2022/04/26 08:09:39;;;;;;;2.90;1.20;;;10.30;99.90;;;;;;5074101;28;20071;-84
2022/04/26 08:12:06;;;;;;;3.47;1.02;;;10.40;99.90;;;;;;5075556;28;20045;-85
2022/04/26 08:14:31;;;;;;;4.28;1.00;;;10.70;99.90;;;;;;5074818;28;20500;-85
2022/04/26 08:16:57;;;;;;;2.97;1.27;;;10.90;99.90;;;;;;5076304;28;20044;-84
2022/04/26 08:19:23;;;;;;;6.55;1.67;;;11.00;99.90;;;;;;5075752;28;20484;-84
2022/04/26 08:21:49;;;;;;;3.50;1.20;;;11.00;99.90;;;;;;5075384;28;20043;-85
2022/04/26 08:29:43;;;;;;;3.05;1.10;;;11.10;99.90;;;;;;5075605;28;20135;-84
2022/04/26 08:32:09;;;;;;;7.18;1.98;;;10.60;99.90;;;;;;5075400;28;20135;-85
2022/04/26 08:34:34;;;;;;;3.75;1.20;;;10.60;99.90;;;;;;5074611;28;20485;-85
2022/04/26 08:37:00;;;;;;;5.22;1.00;;;10.60;99.90;;;;;;5075130;28;20466;-85
2022/04/26 08:39:26;;;;;;;3.65;0.90;;;10.60;99.90;;;;;;5075747;28;20409;-83
2022/04/26 08:41:59;;;;;;;2.95;1.42;;;11.20;99.90;;;;;;5074003;28;20493;-85
2022/04/26 08:44:27;;;;;;;3.97;1.30;;;10.80;99.90;;;;;;5073905;28;20044;-85
2022/04/26 08:52:26;;;;;;;3.65;1.02;;;11.10;99.90;;;;;;5074337;28;20094;-85
2022/04/26 08:54:52;;;;;;;2.70;0.80;;;11.40;99.90;;;;;;5074291;28;20055;-85
2022/04/26 08:57:18;;;;;;;2.13;1.00;;;11.60;99.90;;;;;;5074052;28;20041;-85
2022/04/26 08:59:51;;;;;;;3.13;1.10;;;12.10;99.90;;;;;;5072921;28;20093;-85
2022/04/26 09:02:21;;;;;;;5.18;1.20;;;11.90;99.90;;;;;;5073112;28;20098;-85
2022/04/26 09:04:52;;;;;;;2.65;1.02;;;11.40;99.90;;;;;;5073980;28;20079;-84
2022/04/26 09:07:34;;;;;;;2.80;1.20;;;11.40;99.90;;;;;;5073914;28;20083;-84
2022/04/26 09:10:11;;;;;;;4.88;0.95;;;11.40;99.90;;;;;;5072604;28;20048;-84
2022/04/26 09:13:09;;;;;;;2.20;1.02;;;11.50;99.90;;;;;;5074072;28;20033;-85
2022/04/26 09:15:38;;;;;;;6.25;1.25;;;11.60;99.90;;;;;;5074046;28;20053;-84
2022/04/26 09:18:27;;;;;;;4.57;1.63;;;11.80;99.90;;;;;;5073802;28;20056;-84
2022/04/26 09:20:56;;;;;;;8.20;1.23;;;12.10;99.90;;;;;;5072530;28;20595;-84
2022/04/26 09:23:26;;;;;;;5.10;1.40;;;12.50;99.90;;;;;;5105415;28;20076;-85
2022/04/26 09:25:58;;;;;;;3.08;1.13;;;12.70;99.90;;;;;;5073567;28;20396;-85
2022/04/26 09:28:27;;;;;;;4.28;1.25;;;13.00;99.90;;;;;;5073566;28;20041;-85
2022/04/26 09:30:53;;;;;;;3.38;1.33;;;12.60;99.90;;;;;;5073538;28;20045;-84
2022/04/26 09:33:38;;;;;;;2.65;1.00;;;12.50;99.90;;;;;;5072358;28;20393;-84
2022/04/26 09:36:10;;;;;;;3.50;1.13;;;12.70;99.90;;;;;;5073552;28;20040;-84
2022/04/26 09:38:37;;;;;;;1.90;1.02;;;13.10;99.90;;;;;;5071910;28;20048;-84
2022/04/26 09:41:13;;;;;;;3.63;1.05;;;13.20;99.90;;;;;;5073310;28;20076;-85
2022/04/26 09:43:39;;;;;;;;;;;13.00;99.90;;;;;;5073726;28;20044;-85
2022/04/26 09:46:05;;;;;;;5.28;1.00;;;13.00;99.90;;;;;;5073607;28;19920;-85
2022/04/26 09:48:37;;;;;;;5.35;1.02;;;12.80;99.90;;;;;;5073527;28;20484;-85
2022/04/26 09:51:07;;;;;;;5.68;1.30;;;13.00;99.90;;;;;;5073229;28;20039;-85
2022/04/26 09:53:34;;;;;;;2.90;1.17;;;13.40;99.90;;;;;;5073485;28;20044;-85
2022/04/26 09:56:02;;;;;;;1.98;0.90;;;13.30;99.90;;;;;;5073218;28;20491;-85
2022/04/26 09:58:29;;;;;;;4.85;1.17;;;13.50;99.90;;;;;;5072975;28;20528;-85
2022/04/26 10:01:04;;;;;;;5.00;1.17;;;13.70;99.90;;;;;;5055098;28;20040;-85
2022/04/26 10:03:39;;;;;;;2.33;1.00;;;14.00;99.90;;;;;;5073043;28;20044;-85
2022/04/26 10:06:07;;;;;;;4.60;0.77;;;14.00;99.90;;;;;;5071920;28;20297;-85
2022/04/26 10:08:35;;;;;;;2.50;1.10;;;14.10;99.90;;;;;;5073101;28;20432;-84
2022/04/26 10:11:02;;;;;;;2.63;0.93;;;14.20;99.90;;;;;;5072032;28;20044;-85
2022/04/26 10:13:39;;;;;;;2.47;1.48;;;14.20;99.60;;;;;;5073065;28;20145;-85
2022/04/26 10:16:11;;;;;;;7.13;1.10;;;14.00;99.90;;;;;;5072897;28;20040;-85
2022/04/26 10:18:45;;;;;;;6.40;1.08;;;13.80;99.90;;;;;;5088546;28;20049;-84
2022/04/26 10:21:23;;;;;;;3.38;1.15;;;13.60;99.90;;;;;;5071566;28;20045;-84
2022/04/26 10:23:51;;;;;;;2.42;1.30;;;13.50;99.90;;;;;;5071828;28;20037;-85
2022/04/26 10:26:27;;;;;;;8.27;1.40;;;13.40;99.90;;;;;;5073005;28;20058;-85
2022/04/26 10:29:08;;;;;;;2.92;0.90;;;13.60;99.90;;;;;;5072739;28;20051;-85
2022/04/26 10:31:39;;;;;;;2.13;0.70;;;13.80;99.90;;;;;;5073276;28;20377;-85
2022/04/26 10:34:23;;;;;;;3.53;0.95;;;14.10;99.90;;;;;;5072580;28;20052;-85
2022/04/26 10:36:50;;;;;;;3.53;1.02;;;14.00;99.90;;;;;;5071735;28;20102;-85
2022/04/26 10:39:35;;;;;;;4.30;1.10;;;14.10;99.90;;;;;;5072508;28;20044;-85
2022/04/26 10:42:07;;;;;;;2.33;1.15;;;14.10;98.70;;;;;;5072586;28;20052;-85
2022/04/26 10:44:39;;;;;;;4.50;1.10;;;14.10;99.90;;;;;;5071982;28;20059;-84
2022/04/26 10:47:04;;;;;;;5.55;1.15;;;14.40;99.90;;;;;;5067944;28;20052;-84
2022/04/26 10:49:37;;;;;;;2.40;0.90;;;14.40;99.90;;;;;;5072620;28;20455;-85
2022/04/26 10:52:19;;;;;;;4.70;1.00;;;14.50;99.70;;;;;;5069940;28;20048;-85
2022/04/26 10:57:25;;;;;;;1.77;1.00;;;14.10;99.90;;;;;;5072251;28;20508;-84
2022/04/26 11:00:01;;;;;;;2.55;0.98;;;14.20;98.50;;;;;;5071382;28;20400;-84
2022/04/26 11:02:31;;;;;;;1.40;0.77;;;14.40;99.90;;;;;;5072185;28;20043;-84
2022/04/26 11:05:10;;;;;;;2.25;1.08;;;14.30;99.90;;;;;;5052586;28;20068;-84
2022/04/26 11:07:37;;;;;;;1.08;0.80;;;14.50;99.00;;;;;;5084179;28;20036;-84
2022/04/26 11:10:04;;;;;;;2.47;0.77;;;14.70;99.20;;;;;;5052348;28;20037;-84
2022/04/26 11:12:35;;;;;;;2.30;0.80;;;14.80;98.40;;;;;;5052285;28;20037;-84
2022/04/26 11:15:04;;;;;;;4.05;0.80;;;14.80;97.40;;;;;;5052314;28;20428;-84
2022/04/26 11:17:30;;;;;;;2.33;0.80;;;15.20;95.20;;;;;;5054454;28;20055;-84
2022/04/26 11:19:58;;;;;;;2.20;0.70;;;15.10;95.30;;;;;;5071211;28;20041;-85
2022/04/26 11:22:25;;;;;;;2.83;0.90;;;15.10;96.90;;;;;;5070883;28;20052;-83
2022/04/26 11:28:05;;;;;;;2.58;0.95;;;14.90;96.20;;;;;;5071343;28;20049;-84
2022/04/26 11:30:40;;;;;;;1.65;0.80;;;15.00;95.20;;;;;;5063055;28;20076;-83
2022/04/26 11:33:15;;;;;;;4.27;1.27;;;15.00;96.80;;;;;;5070891;28;20548;-83
2022/04/26 11:35:42;;;;;;;1.08;0.60;;;15.20;95.20;;;;;;5072192;28;20044;-85
2022/04/26 11:38:15;;;;;;;3.03;0.82;;;15.40;96.00;;;;;;5069581;28;20063;-84
2022/04/26 11:40:49;;;;;;;1.33;0.70;;;15.50;93.80;;;;;;5071114;28;20075;-85
2022/04/26 11:43:16;;;;;;;3.78;0.90;;;15.30;92.20;;;;;;5070454;28;20048;-84
2022/04/26 11:45:47;;;;;;;1.95;0.90;;;15.20;91.60;;;;;;5072832;28;20106;-84
2022/04/26 11:48:16;;;;;;;1.77;0.70;;;15.30;94.30;;;;;;5074918;28;20049;-88
2022/04/26 11:50:43;;;;;;;3.92;0.68;;;14.90;92.80;;;;;;5074073;28;20072;-84
2022/04/26 11:53:11;;;;;;;1.75;0.82;;;15.60;86.20;;;;;;5073564;28;20558;-90
2022/04/26 11:55:38;;;;;;;1.83;1.02;;;15.80;91.10;;;;;;5074998;28;20071;-88
2022/04/26 11:58:22;;;;;;;5.05;1.10;;;15.80;91.90;;;;;;5074517;28;20048;-85
2022/04/26 12:01:02;;;;;;;3.13;0.82;;;15.90;92.40;;;;;;5070370;28;20519;-88
2022/04/26 12:03:36;;;;;;;2.30;1.00;;;16.30;87.50;;;;;;5073073;28;20524;-85
2022/04/26 12:06:07;;;;;;;3.35;0.85;;;16.20;90.50;;;;;;5066688;28;20051;-84
2022/04/26 12:09:02;;;;;;;2.72;0.80;;;16.50;91.10;;;;;;5074121;28;20044;-86
2022/04/26 12:11:35;;;;;;;1.40;0.60;;;16.60;90.10;;;;;;5098862;28;20485;-86
2022/04/26 12:14:40;;;;;;;2.28;0.70;;;16.50;89.80;;;;;;5074664;28;20040;-85
2022/04/26 12:17:22;;;;;;;1.23;0.60;;;16.90;90.30;;;;;;5067582;28;20044;-86
2022/04/26 12:19:51;;;;;;;3.92;1.58;;;17.00;89.30;;;;;;5073055;28;20484;-84
2022/04/26 12:22:20;;;;;;;2.10;1.15;;;16.80;80.70;;;;;;5074707;28;20032;-84
2022/04/26 12:24:51;;;;;;;4.28;0.80;;;16.30;81.80;;;;;;5073078;28;20054;-84
2022/04/26 12:27:26;;;;;;;2.95;1.00;;;16.30;90.80;;;;;;5072842;28;20052;-84
2022/04/26 12:29:52;;;;;;;;;;;16.60;91.60;;;;;;5074230;28;20044;-85
2022/04/26 12:32:19;;;;;;;;;;;16.60;86.50;;;;;;5074458;28;19978;-83
2022/04/26 12:34:53;;;;;;;4.65;0.70;;;16.20;86.10;;;;;;5073247;28;19983;-84
2022/04/26 12:37:31;;;;;;;1.33;0.70;;;15.70;90.10;;;;;;5065355;28;20064;-91
2022/04/26 12:40:04;;;;;;;3.80;0.90;;;15.50;91.60;;;;;;5073652;28;20051;-84
2022/04/26 12:42:34;;;;;;;4.93;1.30;;;15.70;95.00;;;;;;5074456;28;20475;-85
2022/04/26 12:45:23;;;;;;;3.88;0.93;;;16.30;90.70;;;;;;5074062;28;20041;-86
2022/04/26 12:50:54;;;;;;;1.45;0.45;;;16.20;84.50;;;;;;5072886;28;20528;-86
2022/04/26 12:53:23;;;;;;;1.33;0.70;;;16.20;85.70;;;;;;5073702;28;20040;-86
2022/04/26 12:55:48;;;;;;;2.53;0.70;;;16.40;91.90;;;;;;5072565;28;20036;-85
2022/04/26 12:58:17;;;;;;;2.90;0.80;;;16.40;90.30;;;;;;5072232;28;20107;-85
2022/04/26 13:00:50;;;;;;;1.75;0.80;;;16.30;91.30;;;;;;5072198;28;20050;-85
2022/04/26 13:03:17;;;;;;;5.38;1.40;;;16.30;90.90;;;;;;5067305;28;20095;-85
2022/04/26 13:05:47;;;;;;;7.55;1.00;;;16.90;85.20;;;;;;5060206;28;20033;-85
2022/04/26 13:08:15;;;;;;;3.28;0.80;;;16.90;91.60;;;;;;5073297;28;20408;-85
2022/04/26 13:10:42;;;;;;;3.38;0.80;;;17.10;88.90;;;;;;5079289;28;20040;-86
2022/04/26 13:13:15;;;;;;;1.98;0.73;;;17.50;78.10;;;;;;5068481;28;20043;-82
2022/04/26 13:15:45;;;;;;;6.20;0.88;;;17.30;79.90;;;;;;5073753;28;20037;-83
2022/04/26 13:18:22;;;;;;;3.95;0.88;;;17.30;78.60;;;;;;5062974;28;20036;-82
2022/04/26 13:20:54;;;;;;;2.17;0.77;;;17.30;84.40;;;;;;5072415;28;20037;-85
2022/04/26 13:23:20;;;;;;;4.50;1.00;;;16.90;86.10;;;;;;5072782;28;20067;-84
2022/04/26 13:25:46;;;;;;;2.72;1.02;;;16.70;93.60;;;;;;5071394;28;20040;-85
2022/04/26 13:28:12;;;;;;;3.22;0.90;;;16.30;90.60;;;;;;5072954;28;20039;-85
2022/04/26 13:30:39;;;;;;;1.70;0.90;;;16.20;91.50;;;;;;5071890;28;20098;-85
2022/04/26 13:33:05;;;;;;;2.22;0.93;;;15.70;93.00;;;;;;5074619;28;20051;-84
2022/04/26 13:35:31;;;;;;;2.63;0.70;;;15.30;91.10;;;;;;5073092;28;20049;-84
2022/04/26 13:37:58;;;;;;;3.17;0.88;;;15.40;95.10;;;;;;5071712;28;20105;-84
2022/04/26 13:40:24;;;;;;;3.85;0.90;;;15.50;94.50;;;;;;5071014;28;20059;-84
2022/04/26 13:42:51;;;;;;;1.55;0.98;;;15.20;95.50;;;;;;5071974;28;20033;-84
2022/04/26 13:45:18;;;;;;;3.17;1.13;;;15.10;95.40;;;;;;5073029;28;20396;-84
2022/04/26 13:47:45;;;;;;;2.40;0.90;;;15.00;95.70;;;;;;5072554;28;20053;-85
2022/04/26 13:50:12;;;;;;;2.33;0.90;;;15.00;95.20;;;;;;5086964;28;20475;-85
2022/04/26 13:52:40;;;;;;;4.05;1.30;;;15.20;98.20;;;;;;5072481;28;20090;-85
2022/04/26 13:55:10;;;;;;;4.68;1.05;;;15.50;96.10;;;;;;5071164;28;20078;-85
2022/04/26 13:57:38;;;;;;;1.88;0.95;;;15.40;95.60;;;;;;5072354;28;20051;-84
2022/04/26 14:00:04;;;;;;;2.90;1.23;;;15.20;95.80;;;;;;5072512;28;20548;-85
2022/04/26 14:02:35;;;;;;;4.15;1.10;;;14.80;97.60;;;;;;5071568;28;20071;-85
2022/04/26 14:05:00;;;;;;;2.17;0.68;;;15.00;93.80;;;;;;5073288;28;20148;-85
2022/04/26 14:07:26;;;;;;;1.80;0.90;;;15.00;93.20;;;;;;5073261;28;20072;-85
2022/04/26 14:09:52;;;;;;;2.53;1.00;;;15.20;93.50;;;;;;5072160;28;20358;-85
2022/04/26 14:12:18;;;;;;;3.25;0.90;;;14.70;93.40;;;;;;5072359;28;20040;-85
2022/04/26 14:22:56;;;;;;;4.05;0.90;;;15.70;91.60;;;;;;5072187;28;20036;-85
2022/04/26 14:25:22;;;;;;;1.35;0.70;;;15.50;90.00;;;;;;5070967;28;20044;-86
2022/04/26 14:27:49;;;;;;;2.38;0.63;;;15.50;87.00;;;;;;5073365;28;20062;-85
2022/04/26 14:30:16;;;;;;;1.52;0.75;;;14.90;92.10;;;;;;5074724;28;20109;-83
2022/04/26 14:32:44;;;;;;;3.90;1.00;;;14.70;94.60;;;;;;5067678;28;20044;-85
2022/04/26 14:35:18;;;;;;;3.60;0.80;;;14.90;92.70;;;;;;5076021;28;20504;-88
2022/04/26 14:37:44;;;;;;;3.07;1.10;;;15.10;95.90;;;;;;5054278;28;20083;-89
2022/04/26 14:40:10;;;;;;;3.22;0.90;;;15.50;93.30;;;;;;5049684;28;20726;-85
2022/04/26 14:42:38;;;;;;;3.40;1.05;;;15.90;94.10;;;;;;5069964;28;20054;-90
2022/04/26 14:45:04;;;;;;;1.45;0.80;;;16.00;92.90;;;;;;5096366;28;20056;-87
2022/04/26 14:47:33;;;;;;;2.97;0.88;;;16.00;96.00;;;;;;5070869;28;20120;-86
2022/04/26 14:50:04;;;;;;;3.65;0.85;;;16.10;90.10;;;;;;5072434;28;20508;-86
2022/04/26 14:52:30;;;;;;;2.15;0.75;;;16.40;87.50;;;;;;5071847;28;20095;-89
2022/04/26 14:54:57;;;;;;;3.20;1.15;;;16.80;77.80;;;;;;5072361;28;20140;-85
2022/04/26 14:57:26;;;;;;;1.55;0.98;;;16.60;82.10;;;;;;5070524;28;20477;-87
2022/04/26 14:59:57;;;;;;;10.85;0.90;;;16.40;80.20;;;;;;5065053;28;20048;-85
2022/04/26 15:02:36;;;;;;;3.40;1.00;;;16.40;83.40;;;;;;5070681;28;20037;-86
2022/04/26 15:05:26;;;;;;;2.17;0.70;;;16.70;87.20;;;;;;5009994;28;20050;-88
2022/04/26 15:11:32;;;;;;;2.80;0.70;;;16.30;86.40;;;;;;5009662;28;20061;-89
2022/04/26 15:16:49;;;;;;;3.70;1.10;;;16.20;84.10;;;;;;5009367;28;20042;-88
2022/04/26 15:19:17;;;;;;;2.25;0.90;;;16.50;84.50;;;;;;5008887;28;20050;-89
2022/04/26 15:21:46;;;;;;;3.45;0.82;;;16.70;83.40;;;;;;5009520;28;20184;-88
2022/04/26 15:24:13;;;;;;;2.67;0.85;;;17.00;84.10;;;;;;5013590;28;20097;-85
2022/04/26 15:26:41;;;;;;;2.17;0.90;;;16.60;79.80;;;;;;5013968;28;20049;-90
2022/04/26 15:29:07;;;;;;;2.72;1.13;;;16.60;78.40;;;;;;4995965;28;20056;-90
2022/04/26 15:31:34;;;;;;;5.10;0.93;;;16.30;81.60;;;;;;5013527;28;20037;-89
2022/04/26 15:34:00;;;;;;;3.08;0.80;;;16.20;78.90;;;;;;5013038;28;20045;-87
2022/04/26 15:36:29;;;;;;;4.93;0.90;;;15.70;80.70;;;;;;5012946;28;20053;-91
2022/04/26 15:38:58;;;;;;;5.30;1.25;;;15.60;86.90;;;;;;5021986;28;20116;-88
2022/04/26 15:41:36;;;;;;;2.80;0.77;;;15.60;84.00;;;;;;5017645;28;20490;-86
2022/04/26 15:44:12;;;;;;;3.95;0.80;;;15.70;87.80;;;;;;5073570;28;20101;-87
2022/04/26 15:46:39;;;;;;;3.67;0.70;;;16.00;82.20;;;;;;5077432;28;20041;-84
2022/04/26 15:49:22;;;;;;;4.13;1.05;;;16.00;82.40;;;;;;5072927;28;20128;-87
2022/04/26 15:52:07;;;;;;;5.20;0.88;;;15.80;81.20;;;;;;5056508;28;20055;-88
2022/04/26 15:54:34;;;;;;;3.15;0.88;;;15.30;86.40;;;;;;5074015;28;20052;-88
2022/04/26 15:57:04;;;;;;;1.85;0.70;;;15.40;85.70;;;;;;5073107;28;20036;-86
2022/04/26 15:59:30;;;;;;;1.02;0.70;;;15.10;84.30;;;;;;5073201;28;20052;-85
2022/04/26 16:01:55;;;;;;;1.27;0.63;;;14.60;86.90;;;;;;5074705;28;20036;-86
2022/04/26 16:04:22;;;;;;;2.33;0.80;;;14.50;92.40;;;;;;5073163;28;20059;-87
2022/04/26 16:06:48;;;;;;;1.10;0.80;;;14.60;90.10;;;;;;5072727;28;20495;-88
2022/04/26 16:20:29;;;;;;;2.25;0.75;;;13.70;93.30;;;;;;5072511;28;20182;-82
2022/04/26 16:22:56;;;;;;;3.97;1.00;;;13.60;94.60;;;;;;5074152;28;20045;-86
2022/04/26 16:25:22;;;;;;;3.85;0.90;;;13.40;97.00;;;;;;5073059;28;20044;-85
2022/04/26 16:27:49;;;;;;;4.60;0.82;;;13.30;96.30;;;;;;5072267;28;20044;-83
2022/04/26 16:30:15;;;;;;;4.30;1.10;;;13.30;95.60;;;;;;5072199;28;20047;-86
2022/04/26 16:32:44;;;;;;;4.07;0.77;;;13.10;96.60;;;;;;5072642;28;20102;-87
2022/04/26 16:35:18;;;;;;;2.35;0.90;;;13.10;95.90;;;;;;5073403;28;20036;-86
2022/04/26 16:37:44;;;;;;;5.03;0.90;;;13.10;95.70;;;;;;5073750;28;20056;-84
2022/04/26 16:40:10;;;;;;;2.20;1.00;;;13.10;95.30;;;;;;5074303;28;20052;-83
2022/04/26 16:42:38;;;;;;;5.35;1.48;;;12.90;95.40;;;;;;5073999;28;20138;-84
2022/04/26 16:45:05;;;;;;;3.70;1.20;;;13.00;96.40;;;;;;5072772;28;20048;-84
2022/04/26 16:47:31;;;;;;;3.28;0.95;;;12.90;96.40;;;;;;5073886;28;20039;-84
2022/04/26 16:49:57;;;;;;;2.97;0.77;;;12.60;97.30;;;;;;5074223;28;20040;-84
2022/04/26 16:52:22;;;;;;;3.25;1.13;;;12.50;97.50;;;;;;5074265;28;20048;-84
2022/04/26 16:54:49;;;;;;;2.25;1.00;;;12.40;98.50;;;;;;5073578;28;20082;-84
2022/04/26 16:57:16;;;;;;;3.50;0.90;;;12.30;98.90;;;;;;5073764;28;20044;-84
2022/04/26 16:59:42;;;;;;;3.25;0.98;;;12.60;99.50;;;;;;5072397;28;20044;-84
2022/04/26 17:02:07;;;;;;;2.65;0.80;;;12.10;99.80;;;;;;5073925;28;20514;-84
2022/04/26 17:04:33;;;;;;;3.80;1.25;;;12.00;99.90;;;;;;5073851;28;20409;-83
2022/04/26 17:07:00;;;;;;;1.45;0.85;;;12.00;99.90;;;;;;5073342;28;20112;-83
2022/04/26 17:09:26;;;;;;;3.67;1.00;;;12.00;99.90;;;;;;5073547;28;20128;-83
2022/04/26 17:11:52;;;;;;;1.80;0.90;;;12.40;99.90;;;;;;5073411;28;20040;-83
2022/04/26 17:14:19;;;;;;;5.80;0.93;;;11.80;99.90;;;;;;5073674;28;20041;-83
2022/04/26 17:16:47;;;;;;;4.32;1.10;;;11.70;99.90;;;;;;5073323;28;20040;-83
2022/04/26 17:19:14;;;;;;;3.65;0.90;;;11.80;99.90;;;;;;5065365;28;20559;-83
2022/04/26 17:21:41;;;;;;;3.67;1.00;;;12.00;99.90;;;;;;5073195;28;20037;-85
2022/04/26 17:25:13;;;;;;;4.13;1.05;;;12.00;99.90;;;;;;5073609;28;20059;-83
2022/04/26 17:26:54;;;;;;;3.83;1.17;;;11.60;99.90;;;;;;5072012;28;20051;-84